Time;durP1;ratioP1;P1;durP2;ratioP2;P2;SDS_P1;SDS_P2;PMS_P1;PMS_P2;Temp;Humidity;BMP_temperature;BMP_pressure;BME280_temperature;BME280_humidity;BME280_pressure;Samples;Min_cycle;Max_cycle;Signal;HPM_P1;HPM_P2
2022/11/16 00:00:42;;;;;;;4.32;3.35;;;19.50;61.20;;;;;;6268639;28;20080;-67
2022/11/16 00:03:44;;;;;;;4.20;3.55;;;19.50;61.20;;;;;;6268775;28;20029;-67
2022/11/16 00:06:45;;;;;;;5.07;3.15;;;19.50;61.10;;;;;;6268230;28;20052;-67
2022/11/16 00:09:46;;;;;;;5.80;3.78;;;19.50;61.20;;;;;;6268046;28;20021;-67
2022/11/16 00:12:46;;;;;;;5.20;3.90;;;19.50;61.10;;;;;;6268149;28;20024;-66
2022/11/16 00:15:56;;;;;;;4.22;3.22;;;19.50;61.10;;;;;;6268136;28;20071;-67
2022/11/16 00:18:59;;;;;;;4.72;3.50;;;19.50;61.10;;;;;;6267985;28;20060;-67
2022/11/16 00:21:59;;;;;;;4.53;3.45;;;19.50;61.10;;;;;;6267663;28;20080;-68
2022/11/16 00:25:00;;;;;;;4.50;3.38;;;19.50;62.00;;;;;;6267669;28;20535;-67
2022/11/16 00:28:00;;;;;;;5.68;3.80;;;19.50;61.10;;;;;;6267525;28;20096;-67
2022/11/16 00:31:04;;;;;;;4.43;3.53;;;19.50;61.20;;;;;;6267971;28;20036;-67
2022/11/16 00:34:04;;;;;;;4.85;3.88;;;19.50;61.20;;;;;;6267391;28;20037;-66
2022/11/16 00:37:05;;;;;;;4.32;3.58;;;19.50;61.20;;;;;;6267518;28;20025;-67
2022/11/16 00:40:06;;;;;;;4.85;3.78;;;19.50;61.10;;;;;;6267955;28;20159;-67
2022/11/16 00:43:07;;;;;;;4.10;3.30;;;19.50;61.00;;;;;;6267037;28;20094;-68
2022/11/16 00:46:08;;;;;;;4.47;3.67;;;19.50;61.00;;;;;;6267894;28;20033;-67
2022/11/16 00:49:09;;;;;;;4.72;3.65;;;19.50;61.00;;;;;;6267190;28;20025;-67
2022/11/16 00:52:09;;;;;;;4.50;3.50;;;19.50;61.10;;;;;;6267221;28;20060;-67
2022/11/16 00:55:10;;;;;;;4.10;3.38;;;19.50;61.10;;;;;;6267182;28;20021;-67
2022/11/16 00:58:11;;;;;;;4.40;3.50;;;19.50;61.10;;;;;;6282494;28;20124;-67
2022/11/16 01:01:12;;;;;;;4.68;3.80;;;19.50;61.00;;;;;;6267473;28;20043;-67
2022/11/16 01:04:13;;;;;;;4.15;3.50;;;19.50;61.00;;;;;;6267282;28;20472;-67
2022/11/16 01:07:13;;;;;;;4.63;3.60;;;19.50;61.10;;;;;;6267033;28;20033;-68
2022/11/16 01:10:16;;;;;;;3.88;3.25;;;19.50;61.00;;;;;;6270952;28;20036;-67
2022/11/16 01:13:16;;;;;;;4.38;3.20;;;19.50;61.00;;;;;;6272169;28;20021;-66
2022/11/16 01:16:19;;;;;;;4.60;3.70;;;19.50;61.10;;;;;;6272650;28;20045;-67
2022/11/16 01:19:20;;;;;;;4.90;3.83;;;19.60;61.20;;;;;;6272476;28;20349;-67
2022/11/16 01:22:21;;;;;;;5.68;3.63;;;19.50;61.00;;;;;;6271700;28;20025;-68
2022/11/16 01:25:21;;;;;;;4.15;3.50;;;19.50;61.00;;;;;;6272009;28;20100;-67
2022/11/16 01:28:22;;;;;;;5.50;3.90;;;19.50;61.10;;;;;;6271715;28;20029;-66
2022/11/16 01:31:22;;;;;;;5.32;3.60;;;19.50;61.00;;;;;;6271859;28;20041;-67
2022/11/16 01:34:23;;;;;;;4.68;3.63;;;19.50;61.00;;;;;;6271931;28;20033;-67
2022/11/16 01:37:25;;;;;;;4.93;3.85;;;19.50;60.90;;;;;;6272152;28;20025;-67
2022/11/16 01:40:27;;;;;;;4.82;3.78;;;19.50;61.00;;;;;;6271903;28;20025;-68
2022/11/16 01:43:27;;;;;;;5.13;3.78;;;19.50;60.90;;;;;;6271453;28;20025;-66
2022/11/16 01:46:29;;;;;;;4.10;3.30;;;19.50;61.00;;;;;;6272264;28;20032;-66
2022/11/16 01:49:32;;;;;;;4.70;3.83;;;19.50;61.00;;;;;;6271320;28;20032;-66
2022/11/16 01:52:34;;;;;;;4.13;3.40;;;19.50;61.00;;;;;;6270035;28;20495;-67
2022/11/16 01:55:37;;;;;;;4.43;3.30;;;19.50;61.00;;;;;;6271048;28;20025;-67
2022/11/16 01:58:37;;;;;;;4.90;3.63;;;19.50;61.00;;;;;;6270546;28;20037;-67
2022/11/16 02:01:38;;;;;;;5.10;3.70;;;19.50;61.00;;;;;;6271895;28;20036;-68
2022/11/16 02:04:39;;;;;;;4.75;3.45;;;19.50;61.00;;;;;;6271011;28;20448;-68
2022/11/16 02:11:39;;;;;;;4.97;3.95;;;19.50;60.90;;;;;;6271104;28;20032;-67
2022/11/16 02:14:51;;;;;;;4.43;3.78;;;19.50;61.00;;;;;;6270517;28;20088;-68
2022/11/16 02:18:41;;;;;;;4.35;3.42;;;19.50;61.00;;;;;;6270766;28;20445;-66
2022/11/16 02:21:50;;;;;;;4.43;3.38;;;19.50;60.90;;;;;;6244692;28;20018;-67
2022/11/16 02:25:06;;;;;;;4.47;3.63;;;19.50;60.90;;;;;;6270171;28;20025;-68
2022/11/16 02:28:27;;;;;;;4.15;3.35;;;19.50;60.90;;;;;;6270652;28;20036;-67
2022/11/16 02:31:35;;;;;;;4.18;3.65;;;19.50;61.00;;;;;;6270438;28;20028;-67
2022/11/16 02:34:48;;;;;;;4.70;3.80;;;19.50;61.00;;;;;;6270069;28;20037;-68
2022/11/16 02:38:06;;;;;;;5.38;4.20;;;19.50;61.00;;;;;;6270368;28;20425;-67
2022/11/16 02:41:14;;;;;;;4.85;3.83;;;19.50;61.00;;;;;;6245913;28;20499;-67
2022/11/16 02:44:20;;;;;;;4.88;3.40;;;19.50;60.90;;;;;;6253944;28;20023;-67
2022/11/16 02:47:27;;;;;;;4.47;3.30;;;19.50;61.00;;;;;;6270181;28;20397;-67
2022/11/16 02:50:30;;;;;;;4.80;3.83;;;19.50;60.90;;;;;;6269928;28;20052;-67
2022/11/16 02:53:37;;;;;;;4.72;3.75;;;19.50;60.90;;;;;;6269757;28;20052;-67
2022/11/16 02:56:57;;;;;;;4.05;3.45;;;19.50;61.00;;;;;;6269463;28;20430;-67
2022/11/16 02:59:59;;;;;;;4.47;3.60;;;19.50;60.90;;;;;;6269809;28;20025;-67
2022/11/16 03:03:34;;;;;;;4.85;3.72;;;19.50;60.80;;;;;;6269838;28;20194;-67
2022/11/16 03:06:38;;;;;;;4.60;3.65;;;19.50;60.90;;;;;;6245017;28;20392;-67
2022/11/16 03:09:40;;;;;;;5.07;3.83;;;19.50;60.90;;;;;;6253287;28;20021;-67
2022/11/16 03:12:41;;;;;;;4.32;3.65;;;19.50;60.90;;;;;;6269477;28;20694;-67
2022/11/16 03:15:42;;;;;;;4.13;3.10;;;19.50;60.90;;;;;;6269565;28;20033;-68
2022/11/16 03:18:46;;;;;;;4.80;3.70;;;19.50;60.90;;;;;;6268975;28;20029;-67
2022/11/16 03:21:50;;;;;;;4.28;3.50;;;19.50;60.90;;;;;;6244535;28;20125;-67
2022/11/16 03:24:51;;;;;;;5.00;3.85;;;19.50;60.80;;;;;;6252790;28;20021;-66
2022/11/16 03:28:18;;;;;;;3.83;3.28;;;19.50;60.90;;;;;;6268913;28;20173;-67
2022/11/16 03:31:26;;;;;;;4.38;3.65;;;19.50;60.90;;;;;;6268238;28;20033;-67
2022/11/16 03:34:31;;;;;;;4.55;3.70;;;19.50;60.90;;;;;;6268964;28;20411;-67
2022/11/16 03:37:34;;;;;;;5.30;3.72;;;19.50;60.80;;;;;;6269112;28;20106;-67
2022/11/16 03:40:36;;;;;;;4.28;3.28;;;19.50;60.80;;;;;;6268622;28;20052;-68
2022/11/16 03:43:38;;;;;;;4.53;3.63;;;19.50;60.90;;;;;;6269197;28;20464;-68
2022/11/16 03:46:42;;;;;;;5.07;3.80;;;19.50;60.80;;;;;;6268283;28;20021;-67
2022/11/16 03:49:46;;;;;;;4.70;3.65;;;19.50;60.80;;;;;;6268721;28;20450;-67
2022/11/16 03:52:47;;;;;;;4.95;3.70;;;19.50;60.80;;;;;;6268129;28;20627;-67
2022/11/16 03:55:47;;;;;;;3.63;3.17;;;19.50;60.80;;;;;;6268471;28;20021;-67
2022/11/16 03:58:48;;;;;;;4.35;3.47;;;19.50;60.90;;;;;;6268211;28;20033;-67
2022/11/16 04:01:48;;;;;;;4.00;3.40;;;19.50;60.80;;;;;;6268657;28;20071;-67
2022/11/16 04:25:07;;;;;;;5.22;3.75;;;19.50;60.80;;;;;;6267806;28;20064;-67
2022/11/16 04:28:15;;;;;;;4.78;3.40;;;19.50;60.80;;;;;;6267894;28;20431;-67
2022/11/16 04:37:56;;;;;;;5.40;3.72;;;19.50;60.80;;;;;;6267532;28;20037;-67
2022/11/16 04:40:57;;;;;;;4.38;3.55;;;19.50;60.80;;;;;;6267604;28;20013;-67
2022/11/16 04:43:57;;;;;;;4.22;3.53;;;19.50;60.70;;;;;;6267081;28;20021;-67
2022/11/16 04:47:07;;;;;;;4.93;3.60;;;19.50;60.80;;;;;;6267242;28;20025;-67
2022/11/16 04:50:08;;;;;;;5.43;3.88;;;19.50;60.70;;;;;;6267087;28;20052;-66
2022/11/16 04:53:09;;;;;;;5.45;3.63;;;19.50;60.70;;;;;;6267692;28;20131;-67
2022/11/16 04:56:11;;;;;;;4.72;3.85;;;19.50;60.70;;;;;;6266896;28;20021;-67
2022/11/16 05:03:08;;;;;;;4.75;3.58;;;19.50;60.80;;;;;;6267382;28;20025;-67
2022/11/16 05:06:09;;;;;;;5.25;4.00;;;19.50;60.70;;;;;;6266527;28;20434;-67
2022/11/16 05:09:10;;;;;;;5.30;4.13;;;19.60;60.80;;;;;;6266972;28;20029;-68
2022/11/16 05:12:13;;;;;;;4.85;3.67;;;19.50;60.60;;;;;;6266562;28;20480;-67
2022/11/16 05:15:16;;;;;;;5.53;3.80;;;19.60;60.80;;;;;;6267065;28;20025;-67
2022/11/16 05:18:17;;;;;;;5.72;4.20;;;19.50;60.70;;;;;;6266846;28;20021;-68
2022/11/16 05:21:17;;;;;;;5.47;4.22;;;19.50;60.70;;;;;;6266892;28;20499;-67
2022/11/16 05:24:33;;;;;;;5.03;3.80;;;19.50;60.50;;;;;;6267274;28;20052;-67
2022/11/16 05:27:34;;;;;;;5.05;3.83;;;19.50;60.60;;;;;;6266512;28;20029;-66
2022/11/16 05:30:34;;;;;;;5.65;4.47;;;19.50;60.70;;;;;;6266997;28;20033;-67
2022/11/16 05:33:35;;;;;;;5.50;3.78;;;19.50;60.70;;;;;;6266855;28;20068;-66
2022/11/16 05:36:36;;;;;;;6.72;4.10;;;19.60;60.80;;;;;;6266496;28;20423;-67
2022/11/16 05:39:37;;;;;;;4.35;3.38;;;19.50;60.60;;;;;;6266620;28;20033;-66
2022/11/16 05:42:38;;;;;;;5.10;3.92;;;19.50;60.60;;;;;;6266622;28;20430;-67
2022/11/16 05:45:38;;;;;;;6.00;4.18;;;19.60;60.80;;;;;;6266587;28;20028;-66
2022/11/16 05:48:39;;;;;;;5.70;4.15;;;19.60;60.80;;;;;;6266479;28;20048;-67
2022/11/16 05:51:42;;;;;;;6.43;4.25;;;19.60;60.70;;;;;;6266098;28;20037;-66
2022/11/16 05:54:43;;;;;;;5.63;4.30;;;19.60;60.70;;;;;;6268113;28;20025;-68
2022/11/16 05:57:43;;;;;;;6.13;4.60;;;19.60;60.70;;;;;;6270938;28;20388;-66
2022/11/16 06:00:47;;;;;;;5.72;4.50;;;19.60;60.80;;;;;;6269575;28;20075;-67
2022/11/16 06:03:48;;;;;;;6.68;4.78;;;19.60;60.80;;;;;;6265524;28;20060;-67
2022/11/16 06:06:49;;;;;;;6.65;4.40;;;19.50;60.60;;;;;;6271371;28;20024;-67
2022/11/16 06:09:49;;;;;;;6.07;4.38;;;19.60;60.70;;;;;;6270694;28;20491;-67
2022/11/16 06:12:50;;;;;;;6.10;4.40;;;19.60;60.80;;;;;;6270923;28;20128;-67
2022/11/16 06:15:50;;;;;;;5.43;4.20;;;19.60;60.60;;;;;;6270736;28;20036;-66
2022/11/16 06:18:51;;;;;;;6.50;4.60;;;19.60;60.70;;;;;;6270590;28;20535;-66
2022/11/16 06:21:52;;;;;;;6.10;4.32;;;19.60;60.60;;;;;;6271081;28;20162;-67
2022/11/16 06:24:52;;;;;;;7.07;5.20;;;19.50;60.60;;;;;;6250762;28;20065;-66
2022/11/16 06:27:53;;;;;;;8.52;5.93;;;19.60;60.60;;;;;;6269965;28;20476;-67
2022/11/16 06:30:53;;;;;;;7.72;5.35;;;19.60;60.30;;;;;;6268374;28;20029;-66
2022/11/16 06:33:54;;;;;;;7.03;4.80;;;19.60;60.40;;;;;;6269867;28;20037;-67
2022/11/16 06:36:55;;;;;;;8.45;5.47;;;19.60;60.50;;;;;;6268680;28;20056;-65
2022/11/16 06:39:55;;;;;;;8.43;5.80;;;19.60;60.40;;;;;;6269306;28;20626;-66
2022/11/16 06:42:56;;;;;;;8.57;5.20;;;19.60;60.40;;;;;;6269264;28;20373;-66
2022/11/16 06:45:57;;;;;;;12.18;5.85;;;19.60;60.50;;;;;;6269231;28;20112;-67
2022/11/16 06:48:57;;;;;;;8.73;5.82;;;19.60;60.50;;;;;;6269049;28;20025;-67
2022/11/16 06:51:58;;;;;;;10.27;5.47;;;19.60;60.50;;;;;;6268665;28;20064;-67
2022/11/16 06:54:59;;;;;;;9.18;5.75;;;19.60;60.50;;;;;;6269336;28;20029;-67
2022/11/16 06:57:59;;;;;;;8.07;5.60;;;19.60;60.50;;;;;;6269001;28;20464;-67
2022/11/16 07:01:07;;;;;;;9.55;6.18;;;19.60;60.50;;;;;;6261839;28;20392;-67
2022/11/16 07:04:14;;;;;;;9.50;5.55;;;19.60;60.50;;;;;;6260135;28;20060;-70
2022/11/16 07:07:15;;;;;;;9.57;5.50;;;19.60;60.50;;;;;;6269532;28;20087;-70
2022/11/16 07:10:16;;;;;;;9.18;5.90;;;19.60;60.60;;;;;;6269246;28;20108;-67
2022/11/16 07:13:16;;;;;;;8.80;5.70;;;19.60;60.60;;;;;;6270372;28;20059;-66
2022/11/16 07:16:17;;;;;;;9.75;5.72;;;19.60;60.60;;;;;;6271045;28;20311;-67
2022/11/16 07:19:18;;;;;;;8.68;5.43;;;19.60;60.60;;;;;;6252984;28;20044;-67
2022/11/16 07:22:18;;;;;;;8.93;5.80;;;19.60;60.60;;;;;;6267017;28;20036;-66
2022/11/16 07:25:19;;;;;;;10.40;6.13;;;19.60;60.60;;;;;;6270203;28;20025;-66
2022/11/16 07:28:20;;;;;;;9.63;5.95;;;19.60;60.60;;;;;;6265908;28;20502;-66
2022/11/16 07:31:20;;;;;;;9.00;5.72;;;19.60;60.70;;;;;;6258381;28;20027;-67
2022/11/16 07:34:21;;;;;;;8.13;6.03;;;19.60;60.60;;;;;;6270736;28;20059;-66
2022/11/16 07:37:21;;;;;;;8.48;5.97;;;19.60;60.60;;;;;;6269847;28;20531;-66
2022/11/16 07:40:22;;;;;;;10.35;6.15;;;19.60;60.70;;;;;;6270327;28;20025;-66
2022/11/16 07:43:23;;;;;;;8.90;6.07;;;19.60;61.50;;;;;;6269855;28;20152;-67
2022/11/16 07:46:23;;;;;;;10.50;5.53;;;19.60;60.60;;;;;;6269591;28;20516;-67
2022/11/16 07:49:24;;;;;;;9.43;5.90;;;19.60;60.70;;;;;;6269777;28;20027;-66
2022/11/16 07:52:24;;;;;;;8.98;6.00;;;19.60;60.70;;;;;;6269356;28;20139;-67
2022/11/16 07:55:30;;;;;;;9.02;6.00;;;19.60;60.60;;;;;;6259758;28;20029;-66
2022/11/16 07:58:32;;;;;;;9.07;5.93;;;19.60;60.60;;;;;;6271395;28;20491;-67
2022/11/16 08:01:33;;;;;;;11.60;5.82;;;19.70;60.40;;;;;;6271221;28;20028;-67
2022/11/16 08:04:34;;;;;;;8.13;5.70;;;19.70;60.20;;;;;;6264118;28;20032;-66
2022/11/16 08:07:34;;;;;;;9.65;5.95;;;19.70;60.00;;;;;;6251059;28;20441;-67
2022/11/16 08:10:35;;;;;;;8.00;4.88;;;19.70;59.90;;;;;;6248351;28;20032;-65
2022/11/16 08:13:37;;;;;;;10.85;6.10;;;19.70;59.80;;;;;;6250804;28;20073;-67
2022/11/16 08:16:38;;;;;;;10.05;6.40;;;19.70;59.80;;;;;;6255181;28;20402;-67
2022/11/16 08:19:41;;;;;;;8.93;5.80;;;19.80;59.80;;;;;;6262599;28;20364;-67
2022/11/16 08:22:42;;;;;;;9.18;6.25;;;19.80;60.60;;;;;;6270642;28;20017;-66
2022/11/16 08:25:42;;;;;;;8.40;5.53;;;19.80;59.80;;;;;;6270241;28;20075;-67
2022/11/16 08:28:45;;;;;;;10.52;6.30;;;19.70;60.00;;;;;;6270080;28;20025;-66
2022/11/16 08:31:46;;;;;;;9.38;5.70;;;19.70;60.00;;;;;;6270639;28;20033;-67
2022/11/16 08:34:47;;;;;;;9.77;5.72;;;19.70;60.20;;;;;;6270683;28;20043;-67
2022/11/16 08:37:47;;;;;;;8.48;6.28;;;19.70;60.20;;;;;;6270294;28;20032;-67
2022/11/16 08:40:49;;;;;;;8.73;5.70;;;19.70;60.30;;;;;;6270264;28;20063;-67
2022/11/16 08:43:52;;;;;;;10.15;6.25;;;19.70;60.30;;;;;;6260690;28;20040;-67
2022/11/16 08:46:52;;;;;;;9.15;5.95;;;19.70;60.40;;;;;;6269779;28;20053;-67
2022/11/16 08:49:53;;;;;;;9.68;5.93;;;19.70;60.40;;;;;;6270704;28;20031;-67
2022/11/16 08:52:56;;;;;;;11.38;6.63;;;19.70;60.50;;;;;;6269384;28;20533;-67
2022/11/16 08:56:04;;;;;;;11.55;5.80;;;19.70;60.40;;;;;;6270685;28;20025;-66
2022/11/16 08:59:05;;;;;;;8.95;6.00;;;19.70;60.50;;;;;;6269983;28;20033;-67
2022/11/16 09:02:06;;;;;;;10.52;6.28;;;19.70;60.40;;;;;;6270094;28;20032;-69
2022/11/16 09:05:10;;;;;;;9.68;6.40;;;19.70;60.40;;;;;;6270686;28;20017;-69
2022/11/16 09:08:11;;;;;;;8.73;5.97;;;19.70;60.50;;;;;;6270441;28;20052;-66
2022/11/16 09:11:17;;;;;;;9.55;5.68;;;19.70;60.50;;;;;;6265638;28;20036;-67
2022/11/16 09:14:17;;;;;;;7.53;5.30;;;19.70;60.40;;;;;;6250329;28;20732;-67
2022/11/16 09:17:18;;;;;;;9.32;5.78;;;19.70;60.40;;;;;;6261351;28;20339;-67
2022/11/16 09:20:19;;;;;;;8.52;5.60;;;19.70;60.40;;;;;;6266421;28;20053;-66
2022/11/16 09:23:20;;;;;;;8.77;5.75;;;19.70;60.40;;;;;;6267733;28;20024;-67
2022/11/16 09:26:21;;;;;;;9.23;5.93;;;19.70;60.30;;;;;;6267415;28;20400;-67
2022/11/16 09:29:22;;;;;;;8.52;5.68;;;19.70;60.20;;;;;;6268761;28;20021;-66
2022/11/16 09:32:23;;;;;;;9.88;6.32;;;19.70;60.30;;;;;;6272786;28;20033;-66
2022/11/16 09:35:23;;;;;;;10.13;5.65;;;19.70;60.30;;;;;;6272942;28;20075;-66
2022/11/16 09:38:24;;;;;;;8.93;6.30;;;19.60;60.20;;;;;;6272497;28;20029;-67
2022/11/16 09:42:02;;;;;;;10.93;6.03;;;19.70;60.40;;;;;;6272880;28;20071;-67
2022/11/16 09:45:14;;;;;;;8.43;5.95;;;19.60;60.30;;;;;;6272501;28;20119;-67
2022/11/16 09:48:17;;;;;;;8.15;5.43;;;19.70;60.30;;;;;;6268534;28;20040;-67
2022/11/16 09:51:21;;;;;;;9.60;6.18;;;19.70;60.40;;;;;;6262850;28;20064;-68
2022/11/16 09:54:25;;;;;;;9.80;5.65;;;19.60;60.40;;;;;;6259451;28;20150;-65
2022/11/16 09:57:33;;;;;;;7.78;5.50;;;19.70;60.40;;;;;;6264851;28;20025;-68
2022/11/16 10:00:34;;;;;;;8.30;5.43;;;19.70;60.40;;;;;;6273159;28;20052;-67
2022/11/16 10:03:42;;;;;;;9.57;5.95;;;19.70;60.40;;;;;;6272145;28;20029;-67
2022/11/16 10:07:05;;;;;;;7.15;5.10;;;19.70;60.40;;;;;;6271999;28;20472;-66
2022/11/16 10:10:14;;;;;;;7.22;5.40;;;19.70;60.40;;;;;;6272110;28;20611;-67
2022/11/16 10:13:15;;;;;;;7.55;5.50;;;19.70;60.40;;;;;;6271960;28;20033;-69
2022/11/16 10:16:45;;;;;;;8.73;5.80;;;19.70;60.40;;;;;;6277232;28;20032;-65
2022/11/16 10:20:08;;;;;;;7.88;5.53;;;19.70;61.30;;;;;;6272146;28;20029;-68
2022/11/16 10:23:38;;;;;;;11.35;5.88;;;19.70;60.40;;;;;;6271496;28;20031;-67
2022/11/16 10:27:00;;;;;;;9.85;5.53;;;19.60;60.40;;;;;;6271718;28;20056;-66
2022/11/16 10:30:06;;;;;;;9.07;5.72;;;19.60;60.40;;;;;;6271654;28;20052;-69
2022/11/16 10:33:15;;;;;;;7.53;5.20;;;19.60;60.40;;;;;;6271639;28;20112;-67
2022/11/16 10:36:18;;;;;;;9.38;5.63;;;19.60;60.40;;;;;;6247034;28;20033;-66
2022/11/16 10:39:19;;;;;;;8.35;5.30;;;19.60;60.40;;;;;;6255467;28;20031;-66
2022/11/16 10:42:33;;;;;;;10.30;5.32;;;19.60;61.30;;;;;;6271157;28;20488;-69
2022/11/16 10:45:42;;;;;;;9.93;5.85;;;19.70;60.40;;;;;;6262248;28;20032;-68
2022/11/16 10:49:10;;;;;;;7.85;4.85;;;19.70;60.30;;;;;;6271437;28;20028;-67
2022/11/16 10:52:11;;;;;;;6.93;4.65;;;19.70;60.40;;;;;;6262101;28;20136;-69
2022/11/16 10:55:15;;;;;;;7.32;4.68;;;19.70;60.40;;;;;;6261827;28;20033;-68
2022/11/16 10:58:15;;;;;;;7.90;5.32;;;19.70;60.40;;;;;;6261235;28;20143;-67
2022/11/16 11:01:39;;;;;;;7.88;5.05;;;19.70;60.40;;;;;;6269809;28;20021;-66
2022/11/16 11:04:40;;;;;;;9.32;5.07;;;19.60;60.30;;;;;;6253931;28;20045;-66
2022/11/16 11:07:45;;;;;;;7.63;5.53;;;19.70;60.40;;;;;;6270379;28;20104;-66
2022/11/16 11:11:00;;;;;;;7.60;5.07;;;19.70;60.40;;;;;;6269905;28;20052;-66
2022/11/16 11:14:03;;;;;;;11.57;5.43;;;19.70;60.40;;;;;;6269714;28;20071;-67
2022/11/16 11:17:11;;;;;;;7.95;5.00;;;19.60;60.40;;;;;;6270086;28;20324;-67
2022/11/16 11:20:15;;;;;;;7.35;4.88;;;19.70;60.40;;;;;;6269896;28;20021;-69
2022/11/16 11:23:22;;;;;;;7.68;4.90;;;19.70;60.40;;;;;;6270099;28;20451;-67
2022/11/16 11:26:28;;;;;;;7.68;5.15;;;19.70;60.40;;;;;;6268343;28;20021;-67
2022/11/16 11:29:38;;;;;;;7.25;5.03;;;19.70;60.40;;;;;;6263958;28;20021;-65
2022/11/16 11:32:39;;;;;;;7.60;4.78;;;19.70;60.40;;;;;;6269325;28;20033;-69
2022/11/16 11:35:40;;;;;;;6.65;4.75;;;19.70;60.40;;;;;;6269620;28;20036;-67
2022/11/16 11:39:05;;;;;;;6.72;4.88;;;19.70;60.40;;;;;;6257881;28;20049;-66
2022/11/16 11:42:12;;;;;;;;;;;19.70;60.40;;;;;;6269953;28;20100;-67
2022/11/16 11:45:14;;;;;;;8.45;5.55;;;19.70;60.40;;;;;;6269375;28;20430;-68
2022/11/16 11:48:23;;;;;;;7.13;5.18;;;19.60;60.00;;;;;;6269411;28;20112;-69
2022/11/16 11:51:33;;;;;;;6.43;4.50;;;19.60;60.10;;;;;;6268833;28;20514;-69
2022/11/16 11:54:40;;;;;;;7.28;5.20;;;19.60;60.10;;;;;;6268703;28;20146;-68
2022/11/16 11:57:43;;;;;;;8.65;5.10;;;19.60;60.10;;;;;;6275056;28;20050;-68
2022/11/16 12:01:12;;;;;;;8.40;4.70;;;19.60;60.30;;;;;;6269378;28;20017;-68
2022/11/16 12:04:43;;;;;;;8.50;5.07;;;19.60;60.10;;;;;;6269273;28;20021;-69
2022/11/16 12:07:44;;;;;;;9.85;4.75;;;19.60;60.20;;;;;;6245557;28;20022;-69
2022/11/16 12:10:50;;;;;;;8.50;5.50;;;19.70;60.30;;;;;;6268593;28;20083;-69
2022/11/16 12:14:38;;;;;;;8.98;5.22;;;19.70;60.30;;;;;;6268266;28;20400;-68
2022/11/16 12:17:38;;;;;;;6.93;4.68;;;19.60;60.20;;;;;;6258359;28;20041;-70
2022/11/16 12:21:06;;;;;;;7.13;4.95;;;19.70;60.30;;;;;;6268433;28;20149;-68
2022/11/16 12:24:35;;;;;;;7.75;5.07;;;19.70;60.30;;;;;;6268224;28;20052;-68
2022/11/16 12:27:48;;;;;;;8.25;5.47;;;19.60;60.30;;;;;;6267887;28;20106;-68
2022/11/16 12:31:17;;;;;;;8.02;5.00;;;19.60;60.30;;;;;;6268262;28;20055;-69
2022/11/16 12:34:47;;;;;;;7.32;5.15;;;19.60;60.30;;;;;;6253308;28;20525;-69
2022/11/16 12:38:09;;;;;;;9.85;5.07;;;19.60;60.30;;;;;;6254156;28;20038;-68
2022/11/16 12:41:42;;;;;;;6.72;4.97;;;19.60;60.40;;;;;;6250569;28;20403;-68
2022/11/16 12:45:01;;;;;;;8.23;5.07;;;19.60;60.30;;;;;;6271563;28;20079;-68
2022/11/16 12:48:38;;;;;;;8.05;5.75;;;19.60;60.40;;;;;;6267961;28;20064;-68
2022/11/16 12:51:56;;;;;;;14.07;7.50;;;19.60;59.80;;;;;;6252846;28;20458;-69
2022/11/16 12:55:18;;;;;;;14.35;8.77;;;19.60;58.80;;;;;;6267750;28;20476;-68
2022/11/16 12:58:52;;;;;;;12.63;7.03;;;19.60;59.10;;;;;;6267547;28;20036;-67
2022/11/16 13:02:21;;;;;;;10.75;6.38;;;19.70;58.70;;;;;;6252336;28;20405;-68
2022/11/16 13:05:47;;;;;;;10.07;6.72;;;19.70;59.00;;;;;;6243019;28;20509;-68
2022/11/16 13:08:56;;;;;;;10.52;6.30;;;19.70;59.20;;;;;;6266594;28;20044;-68
2022/11/16 13:12:02;;;;;;;10.80;5.85;;;19.70;59.30;;;;;;6248309;28;20029;-67
2022/11/16 13:15:03;;;;;;;12.63;6.65;;;19.60;59.20;;;;;;6264825;28;20037;-68
2022/11/16 13:18:07;;;;;;;12.43;6.57;;;19.70;59.30;;;;;;6266693;28;20028;-69
2022/11/16 13:21:23;;;;;;;13.55;6.13;;;19.70;59.40;;;;;;6268293;28;20020;-69
2022/11/16 13:24:36;;;;;;;9.15;5.93;;;19.70;59.50;;;;;;6268041;28;20025;-69
2022/11/16 13:27:48;;;;;;;11.07;5.90;;;19.70;59.40;;;;;;6267150;28;20024;-68
2022/11/16 13:31:04;;;;;;;8.27;5.75;;;19.70;59.50;;;;;;6267732;28;20071;-68
2022/11/16 13:34:25;;;;;;;11.15;6.07;;;19.60;59.50;;;;;;6243640;28;20102;-69
2022/11/16 13:37:37;;;;;;;11.57;5.80;;;19.70;60.30;;;;;;6267363;28;20032;-69
2022/11/16 13:40:38;;;;;;;10.75;6.32;;;19.70;59.50;;;;;;6267211;28;20379;-68
2022/11/16 13:43:47;;;;;;;8.50;5.47;;;19.70;59.60;;;;;;6267631;28;20017;-69
2022/11/16 13:47:04;;;;;;;8.48;5.70;;;19.60;59.50;;;;;;6266604;28;20102;-68
2022/11/16 13:50:15;;;;;;;11.48;5.70;;;19.60;59.60;;;;;;6267545;28;20032;-69
2022/11/16 13:53:31;;;;;;;9.05;5.80;;;19.60;59.60;;;;;;6266980;28;20052;-68
2022/11/16 13:56:47;;;;;;;11.00;6.18;;;19.60;59.60;;;;;;6266927;28;20025;-70
2022/11/16 13:59:54;;;;;;;8.07;5.68;;;19.60;59.60;;;;;;6267361;28;20049;-68
2022/11/16 14:03:29;;;;;;;12.25;5.57;;;19.60;59.70;;;;;;6267110;28;20021;-69
2022/11/16 14:06:30;;;;;;;9.38;5.63;;;19.60;59.70;;;;;;6260916;28;20511;-67
2022/11/16 14:09:41;;;;;;;12.23;6.25;;;19.60;59.80;;;;;;6266415;28;20021;-69
2022/11/16 14:12:53;;;;;;;12.77;6.35;;;19.60;59.60;;;;;;6252928;28;20031;-69
2022/11/16 14:16:18;;;;;;;8.45;5.72;;;19.60;58.90;;;;;;6267102;28;20507;-68
2022/11/16 14:19:47;;;;;;;11.10;7.30;;;19.60;59.20;;;;;;6268645;28;20033;-69
2022/11/16 14:23:25;;;;;;;9.48;6.25;;;19.60;58.40;;;;;;6270041;28;20025;-67
2022/11/16 14:26:59;;;;;;;9.77;6.25;;;19.50;57.90;;;;;;6269904;28;20025;-68
2022/11/16 14:30:24;;;;;;;13.13;7.15;;;19.50;58.20;;;;;;6256828;28;20076;-69
2022/11/16 14:33:32;;;;;;;13.35;8.13;;;19.50;57.40;;;;;;6271247;28;20029;-67
2022/11/16 14:36:35;;;;;;;14.07;7.82;;;19.50;55.00;;;;;;6271140;28;20039;-69
2022/11/16 14:39:43;;;;;;;14.05;7.80;;;19.50;54.80;;;;;;6271110;28;20087;-68
2022/11/16 14:42:50;;;;;;;10.43;6.88;;;19.60;55.30;;;;;;6270905;28;20112;-68
2022/11/16 14:45:58;;;;;;;8.85;6.43;;;19.60;55.70;;;;;;6271121;28;20036;-68
2022/11/16 14:49:00;;;;;;;10.40;6.03;;;19.60;55.80;;;;;;6270339;28;20032;-68
2022/11/16 14:52:03;;;;;;;8.35;6.05;;;19.60;56.30;;;;;;6270514;28;20075;-69
2022/11/16 14:55:06;;;;;;;9.13;6.40;;;19.60;56.80;;;;;;6270904;28;20029;-69
2022/11/16 14:58:21;;;;;;;11.45;7.18;;;19.60;57.10;;;;;;6270443;28;20436;-68
2022/11/16 15:01:28;;;;;;;9.15;6.43;;;19.60;57.20;;;;;;6270723;28;20021;-68
2022/11/16 15:04:30;;;;;;;11.00;5.95;;;19.60;57.40;;;;;;6270617;28;20040;-68
2022/11/16 15:07:31;;;;;;;9.80;6.68;;;19.60;57.50;;;;;;6270567;28;20021;-68
2022/11/16 15:10:31;;;;;;;9.35;6.07;;;19.60;57.40;;;;;;6258542;28;20481;-68
2022/11/16 15:13:32;;;;;;;9.02;6.38;;;19.50;57.40;;;;;;6269485;28;20083;-68
2022/11/16 15:16:46;;;;;;;9.43;6.05;;;19.60;57.30;;;;;;6266432;28;20036;-67
2022/11/16 15:19:58;;;;;;;10.07;6.53;;;19.60;57.30;;;;;;6270167;28;20021;-68
2022/11/16 15:23:01;;;;;;;7.10;5.30;;;19.60;57.30;;;;;;6269968;28;20029;-67
2022/11/16 15:26:03;;;;;;;9.65;5.50;;;19.60;57.30;;;;;;6269788;28;20067;-69
2022/11/16 15:29:04;;;;;;;9.05;6.13;;;19.60;57.30;;;;;;6269409;28;20390;-68
2022/11/16 15:32:11;;;;;;;8.10;6.00;;;19.60;57.30;;;;;;6269761;28;20027;-68
2022/11/16 15:35:32;;;;;;;8.07;5.95;;;19.60;57.40;;;;;;6268314;28;20560;-68
2022/11/16 15:38:35;;;;;;;7.57;5.22;;;19.60;57.40;;;;;;6269313;28;20550;-67
2022/11/16 15:41:37;;;;;;;8.73;5.75;;;19.60;57.50;;;;;;6269522;28;20028;-68
2022/11/16 15:44:38;;;;;;;7.90;5.18;;;19.60;57.70;;;;;;6269023;28;20029;-68
2022/11/16 15:47:40;;;;;;;7.70;5.53;;;19.60;57.60;;;;;;6268766;28;20032;-69
2022/11/16 15:50:54;;;;;;;7.20;5.13;;;19.60;57.70;;;;;;6269521;28;20017;-68
2022/11/16 15:54:13;;;;;;;7.43;5.20;;;19.60;57.70;;;;;;6268519;28;20507;-68
2022/11/16 15:57:13;;;;;;;7.32;4.93;;;19.60;57.70;;;;;;6268851;28;20028;-67
2022/11/16 16:00:21;;;;;;;6.97;5.15;;;19.60;57.70;;;;;;6268602;28;20092;-69
2022/11/16 16:03:25;;;;;;;8.07;5.25;;;19.60;57.80;;;;;;6268501;28;20028;-68
2022/11/16 16:06:45;;;;;;;6.43;4.80;;;19.60;57.80;;;;;;6268112;28;20032;-69
2022/11/16 16:09:45;;;;;;;6.55;4.68;;;19.60;57.90;;;;;;6258904;28;20413;-69
2022/11/16 16:12:52;;;;;;;7.03;4.95;;;19.60;58.00;;;;;;6268458;28;20056;-68
2022/11/16 16:16:23;;;;;;;6.95;4.60;;;19.60;58.00;;;;;;6269873;28;20025;-69
2022/11/16 16:19:39;;;;;;;6.00;4.60;;;19.60;58.00;;;;;;6267848;28;20864;-68
2022/11/16 16:22:39;;;;;;;7.10;4.25;;;19.60;58.00;;;;;;6267195;28;20029;-68
2022/11/16 16:25:40;;;;;;;6.45;4.50;;;19.60;58.00;;;;;;6266912;28;20032;-68
2022/11/16 16:28:41;;;;;;;9.00;4.18;;;19.60;58.00;;;;;;6267857;28;20547;-68
2022/11/16 16:31:42;;;;;;;5.93;4.47;;;19.60;58.00;;;;;;6266250;28;20146;-67
2022/11/16 16:34:43;;;;;;;6.88;4.18;;;19.60;58.20;;;;;;6268275;28;20029;-68
2022/11/16 16:37:46;;;;;;;5.13;4.05;;;19.60;58.10;;;;;;6267742;28;20025;-68
2022/11/16 16:40:47;;;;;;;6.10;4.28;;;19.60;58.20;;;;;;6267556;28;20390;-68
2022/11/16 16:43:48;;;;;;;6.00;4.50;;;19.60;58.20;;;;;;6267299;28;20025;-68